createdAt,value
2022-09-07T00:00:53.323Z,1005.08
2022-09-07T00:01:53.309Z,1005.07
2022-09-07T00:02:53.361Z,1005.06
2022-09-07T00:03:53.317Z,1005.02
2022-09-07T00:04:53.277Z,1005.00
2022-09-07T00:05:53.261Z,1004.98
2022-09-07T00:06:53.248Z,1004.96
2022-09-07T00:07:53.236Z,1004.96
2022-09-07T00:08:53.225Z,1004.94
2022-09-07T00:09:53.211Z,1004.93
2022-09-07T00:10:53.205Z,1004.90
2022-09-07T00:11:53.194Z,1004.86
2022-09-07T00:12:53.178Z,1004.80
2022-09-07T00:13:53.169Z,1004.75
2022-09-07T00:14:53.152Z,1004.70
2022-09-07T00:15:53.200Z,1004.69
2022-09-07T00:16:53.128Z,1004.67
2022-09-07T00:17:53.120Z,1004.67
2022-09-07T00:18:53.107Z,1004.73
2022-09-07T00:19:53.093Z,1004.77
2022-09-07T00:20:53.080Z,1004.82
2022-09-07T00:21:53.069Z,1004.88
2022-09-07T00:22:53.057Z,1004.93
2022-09-07T00:23:53.055Z,1005.02
2022-09-07T00:24:53.035Z,1005.03
2022-09-07T00:25:54.212Z,1005.07
2022-09-07T00:26:53.014Z,1005.11
2022-09-07T00:27:52.998Z,1005.09
2022-09-07T00:28:52.986Z,1005.13
2022-09-07T00:29:52.977Z,1005.14
2022-09-07T00:30:52.963Z,1005.12
2022-09-07T00:31:53.058Z,1005.14
2022-09-07T00:32:52.943Z,1005.14
2022-09-07T00:33:52.929Z,1005.17
2022-09-07T00:34:52.918Z,1005.28
2022-09-07T00:35:52.903Z,1005.46
2022-09-07T00:36:52.892Z,1005.76
2022-09-07T00:37:52.881Z,1006.02
2022-09-07T00:38:52.870Z,1006.08
2022-09-07T00:39:52.893Z,1006.17
2022-09-07T00:40:52.845Z,1006.26
2022-09-07T00:41:52.833Z,1006.30
2022-09-07T00:42:52.820Z,1006.34
2022-09-07T00:43:52.809Z,1006.42
2022-09-07T00:44:52.800Z,1006.50
2022-09-07T00:45:52.791Z,1006.67
2022-09-07T00:46:52.828Z,1006.58
2022-09-07T00:47:52.761Z,1006.62
2022-09-07T00:48:52.745Z,1006.62
2022-09-07T00:49:52.735Z,1006.68
2022-09-07T00:50:52.726Z,1006.67
2022-09-07T00:51:52.714Z,1006.63
2022-09-07T00:52:52.700Z,1006.63
2022-09-07T00:53:52.689Z,1006.63
2022-09-07T00:54:52.676Z,1006.63
2022-09-07T00:55:52.662Z,1006.58
2022-09-07T00:56:52.647Z,1006.64
2022-09-07T00:57:52.640Z,1006.66
2022-09-07T00:58:52.625Z,1006.64
2022-09-07T00:59:52.614Z,1006.69
2022-09-07T01:00:52.602Z,1006.65
2022-09-07T01:01:52.720Z,1006.63
2022-09-07T01:02:52.797Z,1006.65
2022-09-07T01:03:52.566Z,1006.62
2022-09-07T01:04:52.550Z,1006.61
2022-09-07T01:05:52.543Z,1006.62
2022-09-07T01:06:52.528Z,1006.64
2022-09-07T01:07:52.512Z,1006.61
2022-09-07T01:08:52.500Z,1006.59
2022-09-07T01:09:52.489Z,1006.64
2022-09-07T01:10:52.475Z,1006.65
2022-09-07T01:11:52.457Z,1006.66
2022-09-07T01:12:52.448Z,1006.68
2022-09-07T01:13:52.436Z,1006.70
2022-09-07T01:14:52.422Z,1006.72
2022-09-07T01:15:52.493Z,1006.72
2022-09-07T01:16:52.399Z,1006.76
2022-09-07T01:17:52.388Z,1006.71
2022-09-07T01:18:52.377Z,1006.76
2022-09-07T01:19:52.369Z,1006.77
2022-09-07T01:20:52.345Z,1006.79
2022-09-07T01:21:52.332Z,1006.78
2022-09-07T01:22:52.320Z,1006.78
2022-09-07T01:23:52.311Z,1006.77
2022-09-07T01:24:52.299Z,1006.76
2022-09-07T01:25:52.284Z,1006.85
2022-09-07T01:26:52.268Z,1006.81
2022-09-07T01:27:52.262Z,1006.87
2022-09-07T01:28:52.249Z,1006.88
2022-09-07T01:29:52.235Z,1006.95
2022-09-07T01:30:52.275Z,1006.95
2022-09-07T01:31:52.217Z,1006.91
2022-09-07T01:32:52.196Z,1007.00
2022-09-07T01:33:52.187Z,1007.02
2022-09-07T01:34:52.169Z,1007.02
2022-09-07T01:35:52.160Z,1007.05
2022-09-07T01:36:52.145Z,1007.12
2022-09-07T01:37:56.768Z,1007.06
2022-09-07T01:38:52.128Z,1007.12
2022-09-07T01:39:52.183Z,1007.09
2022-09-07T01:40:52.093Z,1007.16
2022-09-07T01:41:52.088Z,1007.09
2022-09-07T01:42:52.069Z,1007.11
2022-09-07T01:43:52.056Z,1007.12
2022-09-07T01:44:52.041Z,1007.15
2022-09-07T01:45:52.033Z,1007.08
2022-09-07T01:46:52.018Z,1007.10
2022-09-07T01:47:52.007Z,1007.05
2022-09-07T01:48:51.993Z,1007.06
2022-09-07T01:49:51.978Z,1007.05
2022-09-07T01:50:51.964Z,1007.06
2022-09-07T01:51:51.959Z,1007.08
2022-09-07T01:52:51.940Z,1007.08
2022-09-07T01:53:51.926Z,1007.07
2022-09-07T01:54:51.934Z,1007.10
2022-09-07T01:55:51.903Z,1007.11
2022-09-07T01:56:51.889Z,1007.13
2022-09-07T01:57:51.880Z,1007.12
2022-09-07T01:58:51.862Z,1007.07
2022-09-07T01:59:51.851Z,1007.06
2022-09-07T02:00:51.837Z,1007.07
2022-09-07T02:01:51.879Z,1007.06
2022-09-07T02:02:51.865Z,1007.06
2022-09-07T02:03:51.798Z,1007.05
2022-09-07T02:04:51.788Z,1006.98
2022-09-07T02:05:51.775Z,1006.97
2022-09-07T02:06:51.759Z,1007.00
2022-09-07T02:07:51.746Z,1006.94
2022-09-07T02:08:51.734Z,1006.89
2022-09-07T02:09:51.725Z,1006.92
2022-09-07T02:10:51.711Z,1006.94
2022-09-07T02:11:51.699Z,1006.91
2022-09-07T02:12:51.682Z,1006.85
2022-09-07T02:13:51.672Z,1006.79
2022-09-07T02:14:52.800Z,1006.76
2022-09-07T02:15:51.747Z,1006.71
2022-09-07T02:16:51.635Z,1006.63
2022-09-07T02:17:51.622Z,1006.67
2022-09-07T02:18:51.606Z,1006.62
2022-09-07T02:19:51.593Z,1006.57
2022-09-07T02:20:51.582Z,1006.60
2022-09-07T02:21:51.570Z,1006.54
2022-09-07T02:22:51.555Z,1006.55
2022-09-07T02:23:51.542Z,1006.51
2022-09-07T02:24:51.528Z,1006.47
2022-09-07T02:25:51.517Z,1006.45
2022-09-07T02:26:51.500Z,1006.40
2022-09-07T02:27:51.492Z,1006.42
2022-09-07T02:28:51.474Z,1006.43
2022-09-07T02:29:51.462Z,1006.40
2022-09-07T02:30:51.502Z,1006.39
2022-09-07T02:31:51.442Z,1006.36
2022-09-07T02:32:51.422Z,1006.39
2022-09-07T02:33:51.410Z,1006.38
2022-09-07T02:34:51.402Z,1006.39
2022-09-07T02:35:51.391Z,1006.35
2022-09-07T02:36:51.380Z,1006.35
2022-09-07T02:37:51.366Z,1006.31
2022-09-07T02:38:51.349Z,1006.31
2022-09-07T02:39:51.406Z,1006.34
2022-09-07T02:40:51.323Z,1006.29
2022-09-07T02:41:51.311Z,1006.29
2022-09-07T02:42:51.298Z,1006.25
2022-09-07T02:43:51.286Z,1006.27
2022-09-07T02:44:51.271Z,1006.23
2022-09-07T02:45:51.319Z,1006.17
2022-09-07T02:46:51.245Z,1006.20
2022-09-07T02:47:51.231Z,1006.16
2022-09-07T02:48:51.219Z,1006.11
2022-09-07T02:49:51.211Z,1006.15
2022-09-07T02:50:51.194Z,1006.15
2022-09-07T02:51:51.181Z,1006.13
2022-09-07T02:52:51.173Z,1006.09
2022-09-07T02:53:51.162Z,1006.06
2022-09-07T02:54:51.145Z,1006.11
2022-09-07T02:55:51.132Z,1006.10
2022-09-07T02:56:51.118Z,1006.02
2022-09-07T02:57:51.104Z,1006.01
2022-09-07T02:58:51.092Z,1005.97
2022-09-07T02:59:51.077Z,1005.96
2022-09-07T03:00:51.072Z,1005.91
2022-09-07T03:01:51.147Z,1005.91
2022-09-07T03:02:51.137Z,1005.90
2022-09-07T03:03:51.023Z,1005.83
2022-09-07T03:04:51.014Z,1005.75
2022-09-07T03:05:51.001Z,1005.76
2022-09-07T03:06:51.002Z,1005.72
2022-09-07T03:07:50.975Z,1005.66
2022-09-07T03:08:50.954Z,1005.59
2022-09-07T03:09:50.941Z,1005.61
2022-09-07T03:10:50.927Z,1005.60
2022-09-07T03:11:50.918Z,1005.56
2022-09-07T03:12:50.905Z,1005.56
2022-09-07T03:13:50.893Z,1005.59
2022-09-07T03:14:50.874Z,1005.57
2022-09-07T03:15:55.545Z,1005.55
2022-09-07T03:16:50.849Z,1005.47
2022-09-07T03:17:50.839Z,1005.44
2022-09-07T03:18:50.832Z,1005.40
2022-09-07T03:19:50.814Z,1005.35
2022-09-07T03:20:50.800Z,1005.35
2022-09-07T03:21:50.788Z,1005.30
2022-09-07T03:22:50.772Z,1005.29
2022-09-07T03:23:51.973Z,1005.29
2022-09-07T03:24:50.745Z,1005.29
2022-09-07T03:25:50.730Z,1005.30
2022-09-07T03:26:50.716Z,1005.29
2022-09-07T03:27:50.706Z,1005.29
2022-09-07T03:28:50.690Z,1005.28
2022-09-07T03:29:50.682Z,1005.28
2022-09-07T03:30:50.750Z,1005.27
2022-09-07T03:31:50.651Z,1005.30
2022-09-07T03:32:50.638Z,1005.25
2022-09-07T03:33:50.622Z,1005.22
2022-09-07T03:34:50.609Z,1005.16
2022-09-07T03:35:50.594Z,1005.19
2022-09-07T03:36:50.581Z,1005.16
2022-09-07T03:37:50.568Z,1005.19
2022-09-07T03:38:50.555Z,1005.20
2022-09-07T03:39:50.588Z,1005.23
2022-09-07T03:40:50.530Z,1005.24
2022-09-07T03:41:50.520Z,1005.28
2022-09-07T03:42:50.503Z,1005.34
2022-09-07T03:43:50.492Z,1005.33
2022-09-07T03:44:50.479Z,1005.28
2022-09-07T03:45:50.520Z,1005.32
2022-09-07T03:46:50.450Z,1005.29
2022-09-07T03:47:50.435Z,1005.27
2022-09-07T03:48:50.442Z,1005.28
2022-09-07T03:49:50.409Z,1005.27
2022-09-07T03:50:50.394Z,1005.26
2022-09-07T03:51:50.380Z,1005.28
2022-09-07T03:52:50.371Z,1005.31
2022-09-07T03:53:50.352Z,1005.28
2022-09-07T03:54:50.337Z,1005.28
2022-09-07T03:55:50.325Z,1005.30
2022-09-07T03:56:50.314Z,1005.33
2022-09-07T03:57:50.299Z,1005.34
2022-09-07T03:58:50.288Z,1005.35
2022-09-07T03:59:50.268Z,1005.31
2022-09-07T04:00:50.262Z,1005.27
2022-09-07T04:01:50.299Z,1005.30
2022-09-07T04:02:50.271Z,1005.30
2022-09-07T04:03:50.219Z,1005.34
2022-09-07T04:04:50.203Z,1005.37
2022-09-07T04:05:50.189Z,1005.36
2022-09-07T04:06:50.180Z,1005.35
2022-09-07T04:07:50.162Z,1005.40
2022-09-07T04:08:50.152Z,1005.34
2022-09-07T04:09:50.136Z,1005.36
2022-09-07T04:10:50.124Z,1005.41
2022-09-07T04:11:50.120Z,1005.41
2022-09-07T04:12:50.106Z,1005.39
2022-09-07T04:13:50.077Z,1005.43
2022-09-07T04:14:50.066Z,1005.41
2022-09-07T04:15:53.776Z,1005.41
2022-09-07T04:16:50.109Z,1005.38
2022-09-07T04:17:50.029Z,1005.40
2022-09-07T04:18:50.011Z,1005.37
2022-09-07T04:19:49.999Z,1005.40
2022-09-07T04:20:49.986Z,1005.39
2022-09-07T04:21:49.976Z,1005.35
2022-09-07T04:22:54.093Z,1005.36
2022-09-07T04:23:49.941Z,1005.37
2022-09-07T04:24:49.935Z,1005.34
2022-09-07T04:25:49.916Z,1005.38
2022-09-07T04:26:49.900Z,1005.38
2022-09-07T04:27:49.889Z,1005.39
2022-09-07T04:28:49.886Z,1005.41
2022-09-07T04:29:49.863Z,1005.39
2022-09-07T04:30:49.955Z,1005.39
2022-09-07T04:31:49.832Z,1005.32
2022-09-07T04:32:49.823Z,1005.33
2022-09-07T04:33:49.826Z,1005.36
2022-09-07T04:34:49.794Z,1005.34
2022-09-07T04:35:49.780Z,1005.33
2022-09-07T04:36:49.765Z,1005.37
2022-09-07T04:37:49.752Z,1005.38
2022-09-07T04:38:49.736Z,1005.36
2022-09-07T04:39:49.757Z,1005.33
2022-09-07T04:40:49.710Z,1005.33
2022-09-07T04:41:49.692Z,1005.33
2022-09-07T04:42:49.679Z,1005.37
2022-09-07T04:43:49.667Z,1005.36
2022-09-07T04:44:49.658Z,1005.33
2022-09-07T04:45:49.699Z,1005.32
2022-09-07T04:46:49.624Z,1005.34
2022-09-07T04:47:49.619Z,1005.34
2022-09-07T04:48:49.596Z,1005.32
2022-09-07T04:49:49.588Z,1005.31
2022-09-07T04:50:49.573Z,1005.28
2022-09-07T04:51:49.560Z,1005.28
2022-09-07T04:52:49.550Z,1005.30
2022-09-07T04:53:49.529Z,1005.31
2022-09-07T04:54:49.519Z,1005.28
2022-09-07T04:55:49.501Z,1005.29
2022-09-07T04:56:49.496Z,1005.30
2022-09-07T04:57:49.475Z,1005.31
2022-09-07T04:58:49.460Z,1005.29
2022-09-07T04:59:49.448Z,1005.32
2022-09-07T05:00:49.507Z,1005.32
2022-09-07T05:01:49.425Z,1005.30
2022-09-07T05:02:49.509Z,1005.29
2022-09-07T05:03:49.391Z,1005.35
2022-09-07T05:04:49.377Z,1005.39
2022-09-07T05:05:49.362Z,1005.38
2022-09-07T05:06:49.348Z,1005.39
2022-09-07T05:07:49.334Z,1005.42
2022-09-07T05:08:49.324Z,1005.40
2022-09-07T05:09:49.315Z,1005.44
2022-09-07T05:10:49.326Z,1005.45
2022-09-07T05:11:49.279Z,1005.44
2022-09-07T05:12:49.269Z,1005.46
2022-09-07T05:13:49.249Z,1005.47
2022-09-07T05:14:49.241Z,1005.46
2022-09-07T05:15:49.224Z,1005.50
2022-09-07T05:16:49.251Z,1005.52
2022-09-07T05:17:49.195Z,1005.55
2022-09-07T05:18:49.207Z,1005.53
2022-09-07T05:19:49.170Z,1005.54
2022-09-07T05:20:49.156Z,1005.53
2022-09-07T05:21:49.138Z,1005.57
2022-09-07T05:22:49.126Z,1005.51
2022-09-07T05:23:49.117Z,1005.52
2022-09-07T05:24:49.098Z,1005.52
2022-09-07T05:25:49.083Z,1005.58
2022-09-07T05:26:49.070Z,1005.58
2022-09-07T05:27:49.061Z,1005.59
2022-09-07T05:28:49.325Z,1005.56
2022-09-07T05:30:05.240Z,1005.54
2022-09-07T05:31:48.997Z,1005.56
2022-09-07T05:32:48.985Z,1005.57
2022-09-07T05:34:52.301Z,1005.55
2022-09-07T05:35:48.946Z,1005.56
2022-09-07T05:36:48.934Z,1005.55
2022-09-07T05:37:48.918Z,1005.57
2022-09-07T05:38:48.909Z,1005.59
2022-09-07T05:39:48.964Z,1005.56
2022-09-07T05:40:48.877Z,1005.56
2022-09-07T05:41:48.857Z,1005.55
2022-09-07T05:42:48.848Z,1005.49
2022-09-07T05:44:48.821Z,1005.52
2022-09-07T05:45:48.834Z,1005.55
2022-09-07T05:46:48.792Z,1005.57
2022-09-07T05:47:48.781Z,1005.57
2022-09-07T05:48:48.768Z,1005.61
2022-09-07T05:49:48.751Z,1005.59
2022-09-07T05:50:48.742Z,1005.61
2022-09-07T05:51:48.724Z,1005.63
2022-09-07T05:52:48.713Z,1005.67
2022-09-07T05:53:48.700Z,1005.68
2022-09-07T05:54:48.691Z,1005.68
2022-09-07T05:55:48.666Z,1005.71
2022-09-07T05:56:48.662Z,1005.71
2022-09-07T05:57:48.642Z,1005.70
2022-09-07T05:58:48.630Z,1005.72
2022-09-07T05:59:48.615Z,1005.72
2022-09-07T06:00:48.603Z,1005.73
2022-09-07T06:01:48.762Z,1005.74
2022-09-07T06:02:48.662Z,1005.70
2022-09-07T06:03:48.559Z,1005.68
2022-09-07T06:04:48.547Z,1005.66
2022-09-07T06:05:48.539Z,1005.64
2022-09-07T06:07:17.604Z,1005.66
2022-09-07T06:07:48.506Z,1005.62
2022-09-07T06:08:48.505Z,1005.64
2022-09-07T06:10:48.468Z,1005.62
2022-09-07T06:11:48.450Z,1005.65
2022-09-07T06:12:49.410Z,1005.64
2022-09-07T06:13:48.422Z,1005.67
2022-09-07T06:14:48.410Z,1005.71
2022-09-07T06:15:48.399Z,1005.71
2022-09-07T06:16:48.457Z,1005.75
2022-09-07T06:17:48.375Z,1005.73
2022-09-07T06:18:48.373Z,1005.77
2022-09-07T06:19:48.343Z,1005.80
2022-09-07T06:20:48.334Z,1005.80
2022-09-07T06:21:48.316Z,1005.86
2022-09-07T06:22:48.306Z,1005.83
2022-09-07T06:23:48.290Z,1005.87
2022-09-07T06:24:48.282Z,1005.82
2022-09-07T06:25:48.261Z,1005.85
2022-09-07T06:26:48.252Z,1005.87
2022-09-07T06:27:48.242Z,1005.89
2022-09-07T06:28:50.111Z,1005.93
2022-09-07T06:29:48.216Z,1005.98
2022-09-07T06:30:48.201Z,1005.99
2022-09-07T06:32:48.170Z,1006.06
2022-09-07T06:33:48.168Z,1006.10
2022-09-07T06:34:48.148Z,1006.06
2022-09-07T06:35:48.136Z,1006.07
2022-09-07T06:36:48.123Z,1006.05
2022-09-07T06:37:48.113Z,1006.02
2022-09-07T06:38:48.098Z,1005.99
2022-09-07T06:39:48.121Z,1005.96
2022-09-07T06:40:48.246Z,1005.94
2022-09-07T06:42:03.354Z,1005.93
2022-09-07T06:42:48.070Z,1005.92
2022-09-07T06:43:48.031Z,1005.92
2022-09-07T06:44:48.026Z,1005.91
2022-09-07T06:45:48.051Z,1005.95
2022-09-07T06:47:03.982Z,1005.98
2022-09-07T06:47:47.983Z,1006.01
2022-09-07T06:48:47.968Z,1006.03
2022-09-07T06:49:47.953Z,1006.04
2022-09-07T06:50:47.940Z,1006.07
2022-09-07T06:51:47.929Z,1006.10
2022-09-07T06:53:48.199Z,1006.10
2022-09-07T06:55:03.406Z,1006.08
2022-09-07T06:55:47.879Z,1006.11
2022-09-07T06:56:47.866Z,1006.13
2022-09-07T06:57:47.856Z,1006.15
2022-09-07T06:58:47.848Z,1006.22
2022-09-07T06:59:47.833Z,1006.21
2022-09-07T07:00:47.928Z,1006.23
2022-09-07T07:01:47.811Z,1006.20
2022-09-07T07:02:47.814Z,1006.17
2022-09-07T07:03:47.785Z,1006.24
2022-09-07T07:04:47.781Z,1006.31
2022-09-07T07:05:47.765Z,1006.24
2022-09-07T07:06:47.757Z,1006.34
2022-09-07T07:07:47.739Z,1006.38
2022-09-07T07:08:47.732Z,1006.35
2022-09-07T07:09:47.722Z,1006.39
2022-09-07T07:10:47.707Z,1006.45
2022-09-07T07:11:47.697Z,1006.29
2022-09-07T07:12:47.699Z,1006.23
2022-09-07T07:13:47.697Z,1006.17
2022-09-07T07:14:47.672Z,1006.19
2022-09-07T07:15:47.662Z,1006.13
2022-09-07T07:16:47.702Z,1006.15
2022-09-07T07:17:53.193Z,1006.10
2022-09-07T07:18:47.627Z,1006.09
2022-09-07T07:19:47.618Z,1006.03
2022-09-07T07:20:47.609Z,1006.08
2022-09-07T07:22:47.589Z,1006.07
2022-09-07T07:23:47.583Z,1006.03
2022-09-07T07:24:47.568Z,1006.06
2022-09-07T07:25:47.550Z,1006.09
2022-09-07T07:26:47.545Z,1006.08
2022-09-07T07:27:47.529Z,1006.08
2022-09-07T07:29:03.885Z,1006.08
2022-09-07T07:29:47.508Z,1006.10
2022-09-07T07:30:47.495Z,1006.09
2022-09-07T07:31:47.486Z,1006.16
2022-09-07T07:32:47.476Z,1006.19
2022-09-07T07:33:47.570Z,1006.21
2022-09-07T07:34:47.460Z,1006.21
2022-09-07T07:35:47.432Z,1006.22
2022-09-07T07:36:47.434Z,1006.18
2022-09-07T07:37:47.418Z,1006.21
2022-09-07T07:39:03.266Z,1006.21
2022-09-07T07:40:19.194Z,1006.27
2022-09-07T07:41:56.448Z,1006.28
2022-09-07T07:42:47.356Z,1006.27
2022-09-07T07:43:47.343Z,1006.23
2022-09-07T07:44:47.369Z,1006.26
2022-09-07T07:46:47.335Z,1006.45
2022-09-07T07:47:47.301Z,1006.56
2022-09-07T07:48:47.284Z,1006.97
2022-09-07T07:49:47.615Z,1006.78
2022-09-07T07:50:47.261Z,1006.96
2022-09-07T07:52:50.775Z,1007.03
2022-09-07T07:53:47.241Z,1006.68
2022-09-07T07:54:47.223Z,1006.77
2022-09-07T07:55:47.214Z,1006.61
2022-09-07T07:56:47.209Z,1006.56
2022-09-07T07:57:47.197Z,1006.58
2022-09-07T07:58:47.194Z,1006.47
2022-09-07T07:59:47.177Z,1006.51
2022-09-07T08:00:55.944Z,1006.51
2022-09-07T08:01:47.273Z,1006.45
2022-09-07T08:02:47.180Z,1006.44
2022-09-07T08:03:47.138Z,1006.42
2022-09-07T08:04:47.130Z,1006.48
2022-09-07T08:05:47.140Z,1006.44
2022-09-07T08:06:47.112Z,1006.41
2022-09-07T08:07:47.100Z,1006.49
2022-09-07T08:08:47.089Z,1006.50
2022-09-07T08:09:47.079Z,1006.55
2022-09-07T08:10:47.070Z,1006.54
2022-09-07T08:11:47.064Z,1006.63
2022-09-07T08:12:47.047Z,1006.62
2022-09-07T08:13:47.039Z,1006.55
2022-09-07T08:14:47.026Z,1006.57
2022-09-07T08:15:47.331Z,1006.59
2022-09-07T08:16:47.126Z,1006.55
2022-09-07T08:17:46.991Z,1006.57
2022-09-07T08:18:47.242Z,1006.61
2022-09-07T08:19:46.971Z,1006.61
2022-09-07T08:20:46.961Z,1006.66
2022-09-07T08:21:46.974Z,1006.72
2022-09-07T08:22:46.936Z,1006.69
2022-09-07T08:23:46.929Z,1006.72
2022-09-07T08:24:46.913Z,1006.77
2022-09-07T08:25:46.906Z,1006.76
2022-09-07T08:26:46.888Z,1006.76
2022-09-07T08:27:46.882Z,1006.76
2022-09-07T08:28:46.869Z,1006.76
2022-09-07T08:29:46.858Z,1006.78
2022-09-07T08:30:46.851Z,1006.80
2022-09-07T08:31:46.917Z,1006.84
2022-09-07T08:32:46.823Z,1006.82
2022-09-07T08:33:46.811Z,1006.81
2022-09-07T08:34:46.811Z,1006.83
2022-09-07T08:35:46.790Z,1006.82
2022-09-07T08:36:46.778Z,1006.81
2022-09-07T08:37:46.788Z,1006.78
2022-09-07T08:38:46.755Z,1006.80
2022-09-07T08:39:46.828Z,1006.77
2022-09-07T08:40:46.729Z,1006.83
2022-09-07T08:41:46.719Z,1006.80
2022-09-07T08:42:46.710Z,1006.84
2022-09-07T08:43:49.104Z,1006.78
2022-09-07T08:44:46.686Z,1006.85
2022-09-07T08:45:46.675Z,1006.84
2022-09-07T08:46:46.742Z,1006.83
2022-09-07T08:47:46.644Z,1006.81
2022-09-07T08:48:46.634Z,1006.84
2022-09-07T08:49:46.628Z,1006.81
2022-09-07T08:50:46.619Z,1006.87
2022-09-07T08:51:46.603Z,1006.87
2022-09-07T08:52:46.603Z,1006.91
2022-09-07T08:53:46.621Z,1006.88
2022-09-07T08:54:46.572Z,1006.92
2022-09-07T08:55:46.557Z,1006.91
2022-09-07T08:57:46.527Z,1006.90
2022-09-07T08:58:50.310Z,1006.93
2022-09-07T08:59:46.501Z,1006.92
2022-09-07T09:00:46.491Z,1006.91
2022-09-07T09:02:27.132Z,1006.95
2022-09-07T09:05:46.683Z,1006.90
2022-09-07T09:06:46.559Z,1006.96
2022-09-07T09:07:46.409Z,1006.96
2022-09-07T09:08:46.392Z,1007.00
2022-09-07T09:09:46.402Z,1006.98
2022-09-07T09:10:46.374Z,1006.95
2022-09-07T09:11:46.359Z,1006.99
2022-09-07T09:12:46.345Z,1006.98
2022-09-07T09:13:46.334Z,1007.12
2022-09-07T09:14:46.321Z,1007.58
2022-09-07T09:15:46.346Z,1007.12
2022-09-07T09:16:46.303Z,1007.09
2022-09-07T09:17:46.287Z,1007.20
2022-09-07T09:18:46.281Z,1007.07
2022-09-07T09:19:46.267Z,1007.14
2022-09-07T09:20:46.259Z,1007.18
2022-09-07T09:21:46.248Z,1007.26
2022-09-07T09:22:46.230Z,1007.15
2022-09-07T09:23:46.216Z,1007.21
2022-09-07T09:24:46.215Z,1007.25
2022-09-07T09:25:46.222Z,1007.11
2022-09-07T09:26:46.221Z,1007.15
2022-09-07T09:27:46.175Z,1007.12
2022-09-07T09:28:46.165Z,1007.17
2022-09-07T09:29:46.157Z,1007.18
2022-09-07T09:30:46.145Z,1007.24
2022-09-07T09:31:46.151Z,1007.19
2022-09-07T09:32:46.127Z,1007.12
2022-09-07T09:33:46.117Z,1007.19
2022-09-07T09:34:46.100Z,1007.16
2022-09-07T09:35:46.087Z,1007.17
2022-09-07T09:36:46.092Z,1007.15
2022-09-07T09:37:46.065Z,1007.12
2022-09-07T09:38:46.058Z,1007.14
2022-09-07T09:39:48.083Z,1007.10
2022-09-07T09:40:46.033Z,1007.15
2022-09-07T09:41:46.040Z,1007.06
2022-09-07T09:42:46.012Z,1007.07
2022-09-07T09:43:46.000Z,1007.03
2022-09-07T09:44:45.991Z,1007.03
2022-09-07T09:46:46.139Z,1007.00
2022-09-07T09:47:46.009Z,1007.02
2022-09-07T09:48:45.955Z,1007.05
2022-09-07T09:49:45.929Z,1007.00
2022-09-07T09:52:51.571Z,1007.04
2022-09-07T09:53:45.882Z,1007.08
2022-09-07T09:54:45.877Z,1007.04
2022-09-07T09:55:45.861Z,1007.00
2022-09-07T09:56:45.849Z,1007.02
2022-09-07T09:59:04.764Z,1006.98
2022-09-07T10:00:04.202Z,1006.91
2022-09-07T10:04:04.449Z,1006.91
2022-09-07T10:04:45.755Z,1006.89
2022-09-07T10:05:45.744Z,1006.89
2022-09-07T10:06:45.733Z,1006.85
2022-09-07T10:07:45.718Z,1006.80
2022-09-07T10:08:45.712Z,1006.72
2022-09-07T10:09:45.700Z,1006.65
2022-09-07T10:10:45.689Z,1006.61
2022-09-07T10:12:45.663Z,1006.56
2022-09-07T10:13:46.839Z,1006.60
2022-09-07T10:14:45.647Z,1006.61
2022-09-07T10:15:45.660Z,1006.61
2022-09-07T10:16:45.619Z,1006.62
2022-09-07T10:17:45.617Z,1006.59
2022-09-07T10:18:45.597Z,1006.52
2022-09-07T10:19:45.577Z,1006.46
2022-09-07T10:20:45.567Z,1006.47
2022-09-07T10:21:45.558Z,1006.47
2022-09-07T10:22:49.597Z,1006.48
2022-09-07T10:23:45.534Z,1006.46
2022-09-07T10:24:45.522Z,1006.46
2022-09-07T10:25:45.513Z,1006.44
2022-09-07T10:26:45.498Z,1006.45
2022-09-07T10:27:45.488Z,1006.41
2022-09-07T10:29:45.483Z,1006.36
2022-09-07T10:30:45.489Z,1006.41
2022-09-07T10:31:45.482Z,1006.46
2022-09-07T10:32:45.449Z,1006.45
2022-09-07T10:34:25.656Z,1006.48
2022-09-07T10:34:45.405Z,1006.52
2022-09-07T10:35:45.393Z,1006.54
2022-09-07T10:36:45.380Z,1006.65
2022-09-07T10:37:45.369Z,1006.64
2022-09-07T10:38:45.359Z,1006.64
2022-09-07T10:39:45.438Z,1006.67
2022-09-07T10:40:45.337Z,1006.67
2022-09-07T10:41:45.331Z,1006.70
2022-09-07T10:43:20.638Z,1006.73
2022-09-07T10:43:45.305Z,1006.71
2022-09-07T10:44:45.294Z,1006.74
2022-09-07T10:45:45.301Z,1006.75
2022-09-07T10:47:00.667Z,1006.74
2022-09-07T10:47:45.258Z,1006.76
2022-09-07T10:48:45.249Z,1006.78
2022-09-07T10:50:45.225Z,1006.77
2022-09-07T10:51:45.214Z,1006.81
2022-09-07T10:52:45.203Z,1006.79
2022-09-07T10:53:45.464Z,1006.76
2022-09-07T10:54:45.181Z,1006.80
2022-09-07T10:55:45.172Z,1006.78
2022-09-07T10:56:45.164Z,1006.76
2022-09-07T10:57:48.884Z,1006.76
2022-09-07T11:00:11.812Z,1006.73
2022-09-07T11:00:45.112Z,1006.81
2022-09-07T11:01:45.310Z,1006.76
2022-09-07T11:03:24.856Z,1006.76
2022-09-07T11:03:45.459Z,1006.77
2022-09-07T11:04:45.070Z,1006.75
2022-09-07T11:05:45.062Z,1006.76
2022-09-07T11:06:45.040Z,1006.75
2022-09-07T11:07:45.038Z,1006.74
2022-09-07T11:09:45.008Z,1006.77
2022-09-07T11:10:44.995Z,1006.74
2022-09-07T11:12:01.105Z,1006.75
2022-09-07T11:12:44.975Z,1006.79
2022-09-07T11:14:11.405Z,1006.77
2022-09-07T11:14:44.949Z,1006.80
2022-09-07T11:15:44.988Z,1006.81
2022-09-07T11:16:52.359Z,1006.77
2022-09-07T11:17:47.376Z,1006.81
2022-09-07T11:18:44.908Z,1006.83
2022-09-07T11:19:44.889Z,1006.84
2022-09-07T11:20:44.883Z,1006.84
2022-09-07T11:22:00.282Z,1006.84
2022-09-07T11:22:44.861Z,1006.82
2022-09-07T11:23:44.845Z,1006.80
2022-09-07T11:24:45.207Z,1006.86
2022-09-07T11:25:46.675Z,1006.81
2022-09-07T11:26:44.815Z,1006.86
2022-09-07T11:27:44.803Z,1006.82
2022-09-07T11:28:45.353Z,1006.84
2022-09-07T11:29:44.800Z,1006.84
2022-09-07T11:30:44.827Z,1006.85
2022-09-07T11:31:44.763Z,1006.86
2022-09-07T11:32:44.752Z,1006.94
2022-09-07T11:34:23.679Z,1006.94
2022-09-07T11:34:45.181Z,1006.88
2022-09-07T11:35:44.715Z,1006.83
2022-09-07T11:36:44.707Z,1006.84
2022-09-07T11:37:44.692Z,1006.81
2022-09-07T11:38:44.685Z,1006.80
2022-09-07T11:39:44.697Z,1006.80
2022-09-07T11:40:44.662Z,1006.81
2022-09-07T11:41:44.647Z,1006.83
2022-09-07T11:42:44.718Z,1006.80
2022-09-07T11:43:44.632Z,1006.84
2022-09-07T11:44:44.617Z,1006.83
2022-09-07T11:45:44.604Z,1006.85
2022-09-07T11:46:44.689Z,1006.84
2022-09-07T11:47:44.588Z,1006.84
2022-09-07T11:48:44.578Z,1006.84
2022-09-07T11:49:49.402Z,1006.84
2022-09-07T11:50:44.558Z,1006.81
2022-09-07T11:51:44.538Z,1006.82
2022-09-07T11:52:44.534Z,1006.80
2022-09-07T11:53:44.519Z,1006.85
2022-09-07T11:54:44.506Z,1006.81
2022-09-07T11:55:44.496Z,1006.88
2022-09-07T11:56:45.671Z,1006.88
2022-09-07T11:57:44.477Z,1006.87
2022-09-07T11:58:44.466Z,1006.86
2022-09-07T11:59:44.448Z,1006.85
2022-09-07T12:00:44.446Z,1006.85
2022-09-07T12:01:44.431Z,1006.83
2022-09-07T12:02:58.951Z,1006.83
2022-09-07T12:03:44.611Z,1006.82
2022-09-07T12:04:44.459Z,1006.80
2022-09-07T12:05:44.414Z,1006.85
2022-09-07T12:06:44.390Z,1006.87
2022-09-07T12:07:44.370Z,1006.88
2022-09-07T12:08:44.353Z,1006.87
2022-09-07T12:09:44.341Z,1006.86
2022-09-07T12:10:44.340Z,1006.83
2022-09-07T12:11:44.319Z,1006.96
2022-09-07T12:12:44.307Z,1006.98
2022-09-07T12:13:44.304Z,1006.92
2022-09-07T12:14:44.286Z,1006.97
2022-09-07T12:15:44.332Z,1006.86
2022-09-07T12:16:44.265Z,1006.87
2022-09-07T12:17:44.253Z,1006.85
2022-09-07T12:18:44.243Z,1006.83
2022-09-07T12:19:44.232Z,1006.84
2022-09-07T12:20:44.219Z,1006.78
2022-09-07T12:21:44.231Z,1006.82
2022-09-07T12:22:44.206Z,1006.77
2022-09-07T12:23:44.190Z,1006.81
2022-09-07T12:24:44.182Z,1006.78
2022-09-07T12:25:44.170Z,1006.71
2022-09-07T12:26:44.157Z,1006.81
2022-09-07T12:27:44.150Z,1006.79
2022-09-07T12:28:44.133Z,1006.72
2022-09-07T12:29:45.572Z,1006.70
2022-09-07T12:30:44.142Z,1006.68
2022-09-07T12:31:57.225Z,1006.71